Time;durP1;ratioP1;P1;durP2;ratioP2;P2;SDS_P1;SDS_P2;PMS_P1;PMS_P2;Temp;Humidity;BMP_temperature;BMP_pressure;BME280_temperature;BME280_humidity;BME280_pressure;Samples;Min_cycle;Max_cycle;Signal;HPM_P1;HPM_P2
2021/11/14 00:00:59;;;;;;;12.60;10.77;;;12.00;95.00;;;;;;5053801;28;20437;-68
2021/11/14 00:03:26;;;;;;;12.07;10.87;;;12.00;94.90;;;;;;5053559;28;20441;-68
2021/11/14 00:05:53;;;;;;;12.47;10.90;;;12.00;94.90;;;;;;5053614;28;20609;-68
2021/11/14 00:08:21;;;;;;;12.80;11.60;;;12.00;94.90;;;;;;5053659;28;20453;-68
2021/11/14 00:10:50;;;;;;;12.57;10.67;;;11.90;95.00;;;;;;5053352;28;20763;-68
2021/11/14 00:13:17;;;;;;;12.63;11.10;;;11.90;95.00;;;;;;5053393;28;20453;-68
2021/11/14 00:15:44;;;;;;;13.67;12.27;;;11.90;95.00;;;;;;5053394;28;20449;-68
2021/11/14 00:18:13;;;;;;;13.20;11.90;;;11.90;95.10;;;;;;5053573;28;20481;-68
2021/11/14 00:20:40;;;;;;;14.33;12.83;;;11.90;95.10;;;;;;5053045;28;20445;-68
2021/11/14 00:23:07;;;;;;;12.93;11.60;;;11.90;95.10;;;;;;5052943;28;20453;-68
2021/11/14 00:25:34;;;;;;;13.37;11.20;;;11.90;95.20;;;;;;5053114;28;20477;-68
2021/11/14 00:28:01;;;;;;;13.20;11.77;;;11.90;95.20;;;;;;5053240;28;20445;-69
2021/11/14 00:30:28;;;;;;;13.50;10.97;;;11.90;95.20;;;;;;5053238;28;20445;-68
2021/11/14 00:32:55;;;;;;;13.00;11.70;;;11.90;95.20;;;;;;5053080;28;20442;-68
2021/11/14 00:35:23;;;;;;;14.43;11.50;;;11.90;95.20;;;;;;5052651;28;20464;-68
2021/11/14 00:37:50;;;;;;;12.07;10.77;;;11.90;95.20;;;;;;5053128;28;20473;-68
2021/11/14 00:40:21;;;;;;;13.00;11.70;;;11.90;95.20;;;;;;5052969;28;20449;-68
2021/11/14 00:42:48;;;;;;;12.93;11.30;;;11.90;95.10;;;;;;5052741;28;20458;-68
2021/11/14 00:45:15;;;;;;;12.30;11.20;;;11.90;95.10;;;;;;5052886;28;20471;-68
2021/11/14 00:47:42;;;;;;;11.13;10.13;;;11.90;95.10;;;;;;5053110;28;20437;-68
2021/11/14 00:50:11;;;;;;;11.97;10.63;;;11.90;95.10;;;;;;5053005;28;20445;-68
2021/11/14 00:52:41;;;;;;;11.77;10.63;;;11.90;95.10;;;;;;5052694;28;21035;-68
2021/11/14 00:55:09;;;;;;;11.50;10.30;;;11.90;95.10;;;;;;5052998;28;20473;-68
2021/11/14 00:57:36;;;;;;;15.77;10.77;;;11.90;95.10;;;;;;5053084;28;20448;-68
2021/11/14 01:00:04;;;;;;;12.50;11.30;;;11.90;95.10;;;;;;5053014;28;20441;-68
2021/11/14 01:02:31;;;;;;;12.60;11.03;;;11.90;95.10;;;;;;5053204;28;20425;-68
2021/11/14 01:04:57;;;;;;;12.30;11.10;;;11.80;95.10;;;;;;5052707;28;21000;-68
2021/11/14 01:07:24;;;;;;;13.23;11.60;;;11.80;95.10;;;;;;5053018;28;20441;-68
2021/11/14 01:09:52;;;;;;;12.17;10.77;;;11.80;95.10;;;;;;5053086;28;20441;-68
2021/11/14 01:12:19;;;;;;;10.80;9.80;;;11.90;95.20;;;;;;5052729;28;20938;-68
2021/11/14 01:14:46;;;;;;;11.17;10.17;;;11.80;95.10;;;;;;5052866;28;20826;-68
2021/11/14 01:17:13;;;;;;;10.73;9.67;;;11.80;95.10;;;;;;5053019;28;20437;-68
2021/11/14 01:19:39;;;;;;;12.00;10.80;;;11.80;95.10;;;;;;5055368;28;20504;-68
2021/11/14 01:22:06;;;;;;;13.67;9.30;;;11.80;95.00;;;;;;5056855;28;20436;-68
2021/11/14 01:24:33;;;;;;;10.40;9.20;;;11.80;95.00;;;;;;5056228;28;20461;-68
2021/11/14 01:27:01;;;;;;;12.37;11.20;;;11.80;95.00;;;;;;5056595;28;20448;-68
2021/11/14 01:29:28;;;;;;;9.97;8.97;;;11.80;95.00;;;;;;5056509;28;20442;-68
2021/11/14 01:31:55;;;;;;;11.23;9.67;;;11.80;95.00;;;;;;5056261;28;20783;-68
2021/11/14 01:34:22;;;;;;;10.00;9.07;;;11.80;95.00;;;;;;5055954;28;20465;-68
2021/11/14 01:36:48;;;;;;;10.80;8.93;;;11.80;94.90;;;;;;5056166;28;20453;-68
2021/11/14 01:39:15;;;;;;;10.47;9.37;;;11.80;94.90;;;;;;5056533;28;20485;-68
2021/11/14 01:41:42;;;;;;;10.10;9.10;;;11.80;94.90;;;;;;5056419;28;20474;-68
2021/11/14 01:44:13;;;;;;;9.63;8.73;;;11.80;94.90;;;;;;5056538;28;20473;-68
2021/11/14 01:46:40;;;;;;;8.53;7.77;;;11.80;94.90;;;;;;5056878;28;20870;-68
2021/11/14 01:49:08;;;;;;;9.50;8.50;;;11.80;94.90;;;;;;5056369;28;20446;-68
2021/11/14 01:51:34;;;;;;;9.50;8.70;;;11.80;94.90;;;;;;5056100;28;20471;-68
2021/11/14 01:54:01;;;;;;;8.90;8.10;;;11.80;94.80;;;;;;5055935;28;20472;-68
2021/11/14 01:56:28;;;;;;;7.23;6.63;;;11.80;94.80;;;;;;5055998;28;20430;-68
2021/11/14 01:58:55;;;;;;;8.40;7.60;;;11.80;94.70;;;;;;5055854;28;20488;-68
2021/11/14 02:01:26;;;;;;;9.00;7.97;;;11.80;94.60;;;;;;5055906;28;20480;-68
2021/11/14 02:04:01;;;;;;;9.00;8.10;;;11.80;94.60;;;;;;5055925;28;20491;-68
2021/11/14 02:06:30;;;;;;;9.63;8.30;;;11.80;94.60;;;;;;5055865;28;20433;-68
2021/11/14 02:08:58;;;;;;;8.33;7.53;;;11.80;94.60;;;;;;5055843;28;20441;-68
2021/11/14 02:11:26;;;;;;;8.37;7.57;;;11.80;94.70;;;;;;5055693;28;20456;-68
2021/11/14 02:13:53;;;;;;;8.60;7.70;;;11.80;94.70;;;;;;5055579;28;20476;-68
2021/11/14 02:16:24;;;;;;;9.40;8.27;;;11.80;94.70;;;;;;5055442;28;20806;-68
2021/11/14 02:18:51;;;;;;;9.20;8.33;;;11.80;94.60;;;;;;5055157;28;20968;-68
2021/11/14 02:21:21;;;;;;;8.77;7.80;;;11.80;94.60;;;;;;5055552;28;20488;-68
2021/11/14 02:23:48;;;;;;;10.23;8.23;;;11.80;94.60;;;;;;5055346;28;20469;-68
2021/11/14 02:26:15;;;;;;;9.20;8.30;;;11.70;94.60;;;;;;5055513;28;20456;-68
2021/11/14 02:28:42;;;;;;;9.70;8.80;;;11.70;94.60;;;;;;5055747;28;20450;-68
2021/11/14 02:31:09;;;;;;;8.83;7.47;;;11.70;94.60;;;;;;5053865;28;20438;-68
2021/11/14 02:33:37;;;;;;;9.57;8.60;;;11.70;94.60;;;;;;5055183;28;20488;-68
2021/11/14 02:36:08;;;;;;;9.00;8.10;;;11.70;94.60;;;;;;5055182;28;20523;-68
2021/11/14 02:38:37;;;;;;;10.80;8.63;;;11.70;94.60;;;;;;5054938;28;20973;-68
2021/11/14 02:41:04;;;;;;;8.57;7.77;;;11.70;94.60;;;;;;5054800;28;20956;-68
2021/11/14 02:43:31;;;;;;;8.27;7.47;;;11.70;94.50;;;;;;5054624;28;20477;-68
2021/11/14 02:45:58;;;;;;;10.13;8.13;;;11.60;94.50;;;;;;5055132;28;20449;-68
2021/11/14 02:48:24;;;;;;;9.30;8.10;;;11.60;94.50;;;;;;5055094;28;20430;-68
2021/11/14 02:50:53;;;;;;;9.63;8.73;;;11.60;94.50;;;;;;5054888;28;20450;-68
2021/11/14 02:53:21;;;;;;;8.67;7.77;;;11.60;94.50;;;;;;5055842;28;20461;-68
2021/11/14 02:55:50;;;;;;;9.00;8.10;;;11.60;94.50;;;;;;5054844;28;20453;-68
2021/11/14 02:58:20;;;;;;;8.20;7.40;;;11.60;94.50;;;;;;5054743;28;20441;-68
2021/11/14 03:00:50;;;;;;;8.33;7.53;;;11.60;94.50;;;;;;5054787;28;20433;-68
2021/11/14 03:03:17;;;;;;;8.00;7.20;;;11.60;94.50;;;;;;5054637;28;20429;-68
2021/11/14 03:05:44;;;;;;;8.33;7.63;;;11.60;94.50;;;;;;5054661;28;20448;-68
2021/11/14 03:08:12;;;;;;;7.87;7.13;;;11.60;94.50;;;;;;5054721;28;20453;-68
2021/11/14 03:10:40;;;;;;;8.87;7.97;;;11.60;94.50;;;;;;5054209;28;20484;-68
2021/11/14 03:13:10;;;;;;;9.27;8.37;;;11.60;94.60;;;;;;5054493;28;20824;-68
2021/11/14 03:15:41;;;;;;;9.23;7.80;;;11.60;94.50;;;;;;5054526;28;20426;-68
2021/11/14 03:18:07;;;;;;;10.30;8.40;;;11.60;94.60;;;;;;5054509;28;20441;-69
2021/11/14 03:20:36;;;;;;;7.60;6.90;;;11.60;94.60;;;;;;5054007;28;20477;-68
2021/11/14 03:23:03;;;;;;;8.90;8.03;;;11.60;94.70;;;;;;5054358;28;20449;-68
2021/11/14 03:25:30;;;;;;;12.93;8.43;;;11.60;94.70;;;;;;5054325;28;20470;-68
2021/11/14 03:27:58;;;;;;;8.87;8.00;;;11.60;94.70;;;;;;5054294;28;20450;-68
2021/11/14 03:30:27;;;;;;;9.40;8.50;;;11.60;94.70;;;;;;5053991;28;20445;-68
2021/11/14 03:32:54;;;;;;;9.70;8.80;;;11.60;94.80;;;;;;5054181;28;20437;-68
2021/11/14 03:35:23;;;;;;;10.53;9.43;;;11.60;94.80;;;;;;5054265;28;20473;-68
2021/11/14 03:37:50;;;;;;;9.70;8.73;;;11.60;94.80;;;;;;5054093;28;20446;-68
2021/11/14 03:40:18;;;;;;;10.83;9.63;;;11.60;94.80;;;;;;5054127;28;20478;-68
2021/11/14 03:42:45;;;;;;;10.37;9.47;;;11.60;94.90;;;;;;5053306;28;20461;-68
2021/11/14 03:45:12;;;;;;;11.07;9.80;;;11.60;94.90;;;;;;5053500;28;20977;-68
2021/11/14 03:47:41;;;;;;;11.33;10.13;;;11.60;94.90;;;;;;5053591;28;20441;-68
2021/11/14 03:50:09;;;;;;;11.43;10.33;;;11.60;94.90;;;;;;5053839;28;20426;-68
2021/11/14 03:52:37;;;;;;;11.53;9.40;;;11.60;95.00;;;;;;5053499;28;20528;-68
2021/11/14 03:55:06;;;;;;;14.50;11.17;;;11.60;95.00;;;;;;5053633;28;20473;-68
2021/11/14 03:57:32;;;;;;;16.07;13.50;;;11.60;95.10;;;;;;5053534;28;20953;-68
2021/11/14 03:59:59;;;;;;;15.83;12.40;;;11.60;95.10;;;;;;5053626;28;20474;-68
2021/11/14 04:02:26;;;;;;;14.27;11.50;;;11.60;95.20;;;;;;5053531;28;20817;-68
2021/11/14 04:04:54;;;;;;;17.77;13.50;;;11.60;95.30;;;;;;5053441;28;20548;-68
2021/11/14 04:07:21;;;;;;;12.50;11.20;;;11.60;95.30;;;;;;5053500;28;20456;-68
2021/11/14 04:09:47;;;;;;;17.57;13.97;;;11.60;95.30;;;;;;5053347;28;20856;-68
2021/11/14 04:12:14;;;;;;;14.00;12.60;;;11.60;95.30;;;;;;5053490;28;20446;-68
2021/11/14 04:14:41;;;;;;;15.00;13.43;;;11.60;95.30;;;;;;5053288;28;20472;-68
2021/11/14 04:17:08;;;;;;;15.50;12.80;;;11.60;95.30;;;;;;5052997;28;20799;-68
2021/11/14 04:19:34;;;;;;;17.33;14.20;;;11.60;95.30;;;;;;5053212;28;20469;-68
2021/11/14 04:22:03;;;;;;;15.30;12.90;;;11.60;95.30;;;;;;5053280;28;20445;-68
2021/11/14 04:24:30;;;;;;;15.43;13.93;;;11.60;95.30;;;;;;5053187;28;20473;-68
2021/11/14 04:26:56;;;;;;;16.20;12.93;;;11.60;95.30;;;;;;5053077;28;20453;-68
2021/11/14 04:29:23;;;;;;;14.60;13.03;;;11.60;95.30;;;;;;5053322;28;20852;-68
2021/11/14 04:31:50;;;;;;;16.83;12.87;;;11.60;95.30;;;;;;5053561;28;20468;-68
2021/11/14 04:34:17;;;;;;;15.07;11.80;;;11.60;95.30;;;;;;5053018;28;20469;-68
2021/11/14 04:36:43;;;;;;;13.43;12.07;;;11.60;95.30;;;;;;5052946;28;20445;-68
2021/11/14 04:39:11;;;;;;;16.17;12.93;;;11.60;95.20;;;;;;5053196;28;20480;-68
2021/11/14 04:41:38;;;;;;;18.40;13.20;;;11.60;95.20;;;;;;5052930;28;20441;-68
2021/11/14 04:44:05;;;;;;;14.00;12.43;;;11.60;95.20;;;;;;5052877;28;20468;-68
2021/11/14 04:46:32;;;;;;;13.30;11.90;;;11.60;95.20;;;;;;5052826;28;20445;-68
2021/11/14 04:48:59;;;;;;;14.80;12.30;;;11.60;95.20;;;;;;5052525;28;20933;-68
2021/11/14 04:51:26;;;;;;;12.93;11.53;;;11.60;95.20;;;;;;5052855;28;20469;-68
2021/11/14 04:53:53;;;;;;;17.07;13.47;;;11.60;95.20;;;;;;5052717;28;20473;-68
2021/11/14 04:56:21;;;;;;;11.80;10.30;;;11.60;95.10;;;;;;5052813;28;20446;-68
2021/11/14 04:58:48;;;;;;;15.43;12.77;;;11.60;95.10;;;;;;5052613;28;20445;-68
2021/11/14 05:01:14;;;;;;;14.93;12.37;;;11.60;95.10;;;;;;5052743;28;20533;-68
2021/11/14 05:03:41;;;;;;;14.37;12.60;;;11.70;95.20;;;;;;5052695;28;20467;-68
2021/11/14 05:06:09;;;;;;;12.17;10.10;;;11.60;95.20;;;;;;5052716;28;20449;-68
2021/11/14 05:08:36;;;;;;;12.83;11.53;;;11.60;95.20;;;;;;5052718;28;20450;-68
2021/11/14 05:11:03;;;;;;;11.97;10.77;;;11.60;95.20;;;;;;5052370;28;20504;-68
2021/11/14 05:13:31;;;;;;;16.80;13.63;;;11.70;95.20;;;;;;5052523;28;20445;-68
2021/11/14 05:15:58;;;;;;;12.87;10.50;;;11.70;95.10;;;;;;5052268;28;20457;-68
2021/11/14 05:18:25;;;;;;;12.63;10.83;;;11.70;95.10;;;;;;5052626;28;20450;-68
2021/11/14 05:20:52;;;;;;;16.10;13.60;;;11.60;95.00;;;;;;5052172;28;21000;-68
2021/11/14 05:23:18;;;;;;;15.17;12.40;;;11.60;95.00;;;;;;5052416;28;20445;-68
2021/11/14 05:25:46;;;;;;;14.57;11.93;;;11.60;95.00;;;;;;5052595;28;20820;-68
2021/11/14 05:28:13;;;;;;;13.37;11.67;;;11.60;95.00;;;;;;5052730;28;20450;-68
2021/11/14 05:30:41;;;;;;;13.77;12.37;;;11.60;95.10;;;;;;5052883;28;20455;-68
2021/11/14 05:33:08;;;;;;;14.30;12.80;;;11.60;95.10;;;;;;5052870;28;20449;-68
2021/11/14 05:35:35;;;;;;;13.90;12.27;;;11.60;95.10;;;;;;5052355;28;21021;-68
2021/11/14 05:38:03;;;;;;;15.77;12.30;;;11.60;95.10;;;;;;5052227;28;20445;-68
2021/11/14 05:40:29;;;;;;;15.03;12.80;;;11.60;95.10;;;;;;5052626;28;20822;-68
2021/11/14 05:42:56;;;;;;;15.07;12.30;;;11.60;95.10;;;;;;5052230;28;20464;-68
2021/11/14 05:45:23;;;;;;;18.60;13.27;;;11.60;95.10;;;;;;5052335;28;20996;-68
2021/11/14 05:47:51;;;;;;;16.63;14.90;;;11.60;95.50;;;;;;5052670;28;20472;-68
2021/11/14 05:50:19;;;;;;;15.70;12.23;;;11.60;95.10;;;;;;5052560;28;20445;-68
2021/11/14 05:52:46;;;;;;;18.00;14.93;;;11.60;95.10;;;;;;5052530;28;20452;-68
2021/11/14 05:55:13;;;;;;;19.27;15.00;;;11.60;95.10;;;;;;5052465;28;20469;-68
2021/11/14 05:57:48;;;;;;;18.53;15.30;;;11.60;95.10;;;;;;5052577;28;20446;-68
2021/11/14 06:00:22;;;;;;;20.03;15.13;;;11.60;95.10;;;;;;5052493;28;20471;-68
2021/11/14 06:02:52;;;;;;;20.90;15.10;;;11.60;95.10;;;;;;5052522;28;20441;-68
2021/11/14 06:05:20;;;;;;;19.50;13.67;;;11.60;95.20;;;;;;5054283;28;20921;-68
2021/11/14 06:07:48;;;;;;;21.00;14.60;;;11.50;95.10;;;;;;5056081;28;20441;-68
2021/11/14 06:10:16;;;;;;;18.93;14.80;;;11.50;95.10;;;;;;5055993;28;20620;-68
2021/11/14 06:12:44;;;;;;;22.17;16.37;;;11.50;95.10;;;;;;5056080;28;20445;-68
2021/11/14 06:15:14;;;;;;;20.20;14.77;;;11.50;95.10;;;;;;5055964;28;20472;-68
2021/11/14 06:17:41;;;;;;;21.20;15.10;;;11.50;95.40;;;;;;5055812;28;20492;-68
2021/11/14 06:20:09;;;;;;;24.67;15.93;;;11.50;95.10;;;;;;5055789;28;20481;-68
2021/11/14 06:22:37;;;;;;;18.80;14.87;;;11.50;95.10;;;;;;5055569;28;20449;-68
2021/11/14 06:25:05;;;;;;;23.60;15.87;;;11.50;95.00;;;;;;5055807;28;20504;-68
2021/11/14 06:27:32;;;;;;;24.97;16.60;;;11.50;95.00;;;;;;5055742;28;20452;-68
2021/11/14 06:29:59;;;;;;;23.47;15.57;;;11.50;95.00;;;;;;5055711;28;20437;-68
2021/11/14 06:32:26;;;;;;;24.37;15.83;;;11.50;95.00;;;;;;5055672;28;20457;-68
2021/11/14 06:34:52;;;;;;;18.43;13.97;;;11.50;95.10;;;;;;5055445;28;20488;-68
2021/11/14 06:37:19;;;;;;;23.93;15.40;;;11.50;95.10;;;;;;5055562;28;20442;-68
2021/11/14 06:39:47;;;;;;;23.40;16.10;;;11.50;95.50;;;;;;5055157;28;20480;-68
2021/11/14 06:42:14;;;;;;;18.87;14.33;;;11.50;95.10;;;;;;5055292;28;20468;-68
2021/11/14 06:44:41;;;;;;;24.00;17.03;;;11.50;95.20;;;;;;5056046;28;20841;-68
2021/11/14 06:47:08;;;;;;;22.67;16.27;;;11.50;95.20;;;;;;5055479;28;20437;-68
2021/11/14 06:49:34;;;;;;;22.47;15.57;;;11.50;95.20;;;;;;5055077;28;20452;-69
2021/11/14 06:52:01;;;;;;;25.50;17.37;;;11.50;95.20;;;;;;5055394;28;20500;-68
2021/11/14 06:54:28;;;;;;;22.97;16.33;;;11.50;95.20;;;;;;5055087;28;20461;-68
2021/11/14 06:56:56;;;;;;;22.30;16.47;;;11.50;95.30;;;;;;5055146;28;20468;-68
2021/11/14 06:59:23;;;;;;;22.50;15.73;;;11.50;95.30;;;;;;5054876;28;20941;-68
2021/11/14 07:01:50;;;;;;;22.47;16.13;;;11.50;95.60;;;;;;5054990;28;20445;-68
2021/11/14 07:04:17;;;;;;;24.37;17.20;;;11.50;95.30;;;;;;5055026;28;20477;-68
2021/11/14 07:06:45;;;;;;;22.90;17.10;;;11.50;95.30;;;;;;5054856;28;20963;-68
2021/11/14 07:09:13;;;;;;;21.00;15.03;;;11.50;95.30;;;;;;5054918;28;20548;-68
2021/11/14 07:11:40;;;;;;;21.77;14.93;;;11.50;95.30;;;;;;5054540;28;21078;-68
2021/11/14 07:14:08;;;;;;;19.20;13.57;;;11.50;95.30;;;;;;5054507;28;20465;-68
2021/11/14 07:16:35;;;;;;;19.67;13.13;;;11.50;95.30;;;;;;5054194;28;20449;-68
2021/11/14 07:19:03;;;;;;;19.47;13.83;;;11.50;95.30;;;;;;5054678;28;20430;-68
2021/11/14 07:21:30;;;;;;;17.93;12.90;;;11.50;95.20;;;;;;5054207;28;20526;-68
2021/11/14 07:23:57;;;;;;;17.20;12.83;;;11.50;95.20;;;;;;5054284;28;20977;-68
2021/11/14 07:26:24;;;;;;;17.00;12.27;;;11.50;95.20;;;;;;5054226;28;20909;-68
2021/11/14 07:28:51;;;;;;;18.37;12.93;;;11.50;95.20;;;;;;5055225;28;20768;-68
2021/11/14 07:31:19;;;;;;;14.80;11.97;;;11.50;95.20;;;;;;5054300;28;20492;-68
2021/11/14 07:33:46;;;;;;;14.40;12.30;;;11.50;95.20;;;;;;5054384;28;20464;-69
2021/11/14 07:36:14;;;;;;;14.87;10.67;;;11.50;95.20;;;;;;5058811;28;20446;-68
2021/11/14 07:38:41;;;;;;;14.23;12.00;;;11.50;95.20;;;;;;5055509;28;20893;-68
2021/11/14 07:41:08;;;;;;;14.23;11.37;;;11.50;95.10;;;;;;5056888;28;20508;-68
2021/11/14 07:43:35;;;;;;;12.87;10.53;;;11.50;95.10;;;;;;5053647;28;21029;-69
2021/11/14 07:46:02;;;;;;;13.80;10.50;;;11.60;95.20;;;;;;5054158;28;20801;-69
2021/11/14 07:48:31;;;;;;;13.20;10.43;;;11.60;95.20;;;;;;5054138;28;20523;-69
2021/11/14 07:50:59;;;;;;;11.93;10.73;;;11.60;95.10;;;;;;5054204;28;20440;-69
2021/11/14 07:53:26;;;;;;;11.30;9.60;;;11.60;95.00;;;;;;5053863;28;20448;-69
2021/11/14 07:55:53;;;;;;;11.37;9.53;;;11.60;94.90;;;;;;5053685;28;20992;-69
2021/11/14 07:58:20;;;;;;;10.33;9.10;;;11.60;94.90;;;;;;5053760;28;20452;-69
2021/11/14 08:00:48;;;;;;;11.63;9.83;;;11.60;94.90;;;;;;5053950;28;20477;-69
2021/11/14 08:03:15;;;;;;;11.07;9.47;;;11.60;94.80;;;;;;5053907;28;20430;-69
2021/11/14 08:05:44;;;;;;;9.77;8.87;;;11.60;94.80;;;;;;5053925;28;20451;-69
2021/11/14 08:08:11;;;;;;;9.43;8.43;;;11.60;94.70;;;;;;5053505;28;20816;-68
2021/11/14 08:10:38;;;;;;;9.53;8.53;;;11.60;94.60;;;;;;5053757;28;20441;-68
2021/11/14 08:13:06;;;;;;;9.93;9.03;;;11.60;94.50;;;;;;5053653;28;20449;-68
2021/11/14 08:15:33;;;;;;;10.90;9.33;;;11.60;94.50;;;;;;5054072;28;20473;-68
2021/11/14 08:17:59;;;;;;;10.70;8.40;;;11.60;94.40;;;;;;5053536;28;20445;-68
2021/11/14 08:20:26;;;;;;;9.57;8.63;;;11.70;94.40;;;;;;5053859;28;21062;-68
2021/11/14 08:22:59;;;;;;;7.93;7.23;;;11.70;94.30;;;;;;5053422;28;20450;-68
2021/11/14 08:25:27;;;;;;;8.40;7.63;;;11.70;94.20;;;;;;5054167;28;20470;-68
2021/11/14 08:27:53;;;;;;;7.93;7.23;;;11.80;94.20;;;;;;5052774;28;20430;-68
2021/11/14 08:30:21;;;;;;;9.03;8.30;;;11.80;94.10;;;;;;5053225;28;20426;-69
2021/11/14 08:32:48;;;;;;;7.60;6.90;;;11.80;94.00;;;;;;5053079;28;20436;-69
2021/11/14 08:35:16;;;;;;;8.43;6.20;;;11.90;94.00;;;;;;5052925;28;21000;-68
2021/11/14 08:37:42;;;;;;;7.60;6.90;;;11.90;93.90;;;;;;5052996;28;20914;-68
2021/11/14 08:40:12;;;;;;;8.20;7.40;;;12.00;93.90;;;;;;5053844;28;20454;-69
2021/11/14 08:42:40;;;;;;;6.93;6.33;;;12.00;93.80;;;;;;5053092;28;20453;-69
2021/11/14 08:45:08;;;;;;;7.30;6.57;;;12.00;93.70;;;;;;5052962;28;20962;-69
2021/11/14 08:47:35;;;;;;;6.90;6.30;;;12.10;93.60;;;;;;5053181;28;20426;-68
2021/11/14 08:50:02;;;;;;;6.47;5.90;;;12.10;93.50;;;;;;5052864;28;20791;-69
2021/11/14 08:52:29;;;;;;;6.50;6.00;;;12.20;93.40;;;;;;5053125;28;20795;-69
2021/11/14 08:54:56;;;;;;;7.43;6.37;;;12.20;93.30;;;;;;5052633;28;20981;-69
2021/11/14 08:57:24;;;;;;;7.27;6.57;;;12.30;93.20;;;;;;5052931;28;20445;-69
2021/11/14 08:59:51;;;;;;;6.37;5.80;;;12.30;93.10;;;;;;5052907;28;20448;-70
2021/11/14 09:02:31;;;;;;;7.90;7.10;;;12.40;92.90;;;;;;5058299;28;20456;-70
2021/11/14 09:04:57;;;;;;;7.10;6.60;;;12.50;92.40;;;;;;5053866;28;20229;-70
2021/11/14 09:07:24;;;;;;;6.60;6.00;;;12.50;92.50;;;;;;5052935;28;20453;-70
2021/11/14 09:09:51;;;;;;;5.70;5.30;;;12.60;92.40;;;;;;5052799;28;20446;-71
2021/11/14 09:12:18;;;;;;;6.33;5.83;;;12.60;92.30;;;;;;5052719;28;20449;-71
2021/11/14 09:17:28;;;;;;;5.80;5.27;;;12.60;92.00;;;;;;5049674;28;20449;-71
2021/11/14 09:19:55;;;;;;;6.77;6.27;;;12.60;92.00;;;;;;5052443;28;20812;-71
2021/11/14 09:22:22;;;;;;;5.63;5.13;;;12.60;91.90;;;;;;5052710;28;20469;-71
2021/11/14 09:24:49;;;;;;;6.10;5.50;;;12.60;91.90;;;;;;5052468;28;20989;-71
2021/11/14 09:27:17;;;;;;;5.27;4.63;;;12.70;91.80;;;;;;5052821;28;20472;-70
2021/11/14 09:29:43;;;;;;;7.03;6.00;;;12.70;91.70;;;;;;5053196;28;20549;-71
2021/11/14 09:32:12;;;;;;;5.47;4.97;;;12.60;91.80;;;;;;5052620;28;20452;-70
2021/11/14 09:34:39;;;;;;;5.53;5.03;;;12.70;91.40;;;;;;5052561;28;20449;-70
2021/11/14 09:37:07;;;;;;;5.03;4.63;;;12.70;91.40;;;;;;5052778;28;20449;-70
2021/11/14 09:39:34;;;;;;;5.70;5.20;;;12.70;91.40;;;;;;5053444;28;20456;-70
2021/11/14 09:42:02;;;;;;;5.30;4.80;;;12.70;91.50;;;;;;5056363;28;20489;-70
2021/11/14 09:44:29;;;;;;;5.43;5.03;;;12.70;91.50;;;;;;5056691;28;20551;-70
2021/11/14 09:46:57;;;;;;;4.63;4.27;;;12.70;91.40;;;;;;5056585;28;20462;-70
2021/11/14 09:49:28;;;;;;;5.20;4.80;;;12.70;91.40;;;;;;5056467;28;20441;-70
2021/11/14 09:51:57;;;;;;;4.97;4.57;;;12.70;91.30;;;;;;5056421;28;20406;-72
2021/11/14 09:54:25;;;;;;;4.87;4.57;;;12.70;91.30;;;;;;5056379;28;20466;-70
2021/11/14 09:56:53;;;;;;;4.00;3.70;;;12.70;91.30;;;;;;5056335;28;20845;-70
2021/11/14 09:59:21;;;;;;;4.87;4.57;;;12.70;91.30;;;;;;5056340;28;20442;-70
2021/11/14 10:01:48;;;;;;;5.10;4.70;;;12.70;91.20;;;;;;5055924;28;20481;-70
2021/11/14 10:04:16;;;;;;;4.97;4.57;;;12.80;91.20;;;;;;5056236;28;20468;-71
2021/11/14 10:06:58;;;;;;;5.80;5.40;;;12.80;91.10;;;;;;5056183;28;20445;-71
2021/11/14 10:09:33;;;;;;;5.53;5.10;;;12.80;91.10;;;;;;5056109;28;20437;-71
2021/11/14 10:12:11;;;;;;;4.83;4.47;;;12.80;90.90;;;;;;5055841;28;20540;-71
2021/11/14 10:14:38;;;;;;;4.50;4.10;;;12.80;90.80;;;;;;5055983;28;20500;-71
2021/11/14 10:17:15;;;;;;;4.03;3.73;;;12.90;91.30;;;;;;5055971;28;20445;-71
2021/11/14 10:19:42;;;;;;;5.63;4.53;;;12.90;90.90;;;;;;5056002;28;20829;-71
2021/11/14 10:22:10;;;;;;;5.37;4.97;;;13.00;90.80;;;;;;5055557;28;20481;-71
2021/11/14 10:24:38;;;;;;;4.87;4.47;;;13.00;90.80;;;;;;5055461;28;20887;-71
2021/11/14 10:27:11;;;;;;;4.60;4.30;;;13.10;90.70;;;;;;5055807;28;20442;-71
2021/11/14 10:29:39;;;;;;;5.30;4.80;;;13.10;90.70;;;;;;5055830;28;20438;-71
2021/11/14 10:32:08;;;;;;;4.53;4.23;;;13.20;90.50;;;;;;5055725;28;20445;-72
2021/11/14 10:34:44;;;;;;;4.70;4.30;;;13.20;90.30;;;;;;5055596;28;20515;-71
2021/11/14 10:37:12;;;;;;;10.80;9.80;;;13.20;89.60;;;;;;5055733;28;20436;-71
2021/11/14 10:39:41;;;;;;;11.37;10.37;;;13.30;89.90;;;;;;5055528;28;20446;-71
2021/11/14 10:42:13;;;;;;;14.97;13.53;;;13.30;90.00;;;;;;5055188;28;20488;-72
2021/11/14 10:44:47;;;;;;;17.23;15.17;;;13.30;90.00;;;;;;5055245;28;20556;-71
2021/11/14 10:47:21;;;;;;;16.33;14.63;;;13.30;90.00;;;;;;5055309;28;20462;-73
2021/11/14 10:49:57;;;;;;;19.00;16.10;;;13.30;90.10;;;;;;5055454;28;20500;-74
2021/11/14 10:52:26;;;;;;;19.57;17.57;;;13.30;90.20;;;;;;5054415;28;20433;-74
2021/11/14 10:54:55;;;;;;;19.53;17.47;;;13.30;90.20;;;;;;5054946;28;21004;-74
2021/11/14 10:57:25;;;;;;;26.83;19.10;;;13.30;90.30;;;;;;5055197;28;20446;-74
2021/11/14 10:59:53;;;;;;;20.80;17.73;;;13.30;90.40;;;;;;5055167;28;20480;-74
2021/11/14 11:02:22;;;;;;;17.33;15.50;;;13.30;90.40;;;;;;5055011;28;20848;-71
2021/11/14 11:04:51;;;;;;;15.13;12.93;;;13.30;90.40;;;;;;5054723;28;20981;-70
2021/11/14 11:07:18;;;;;;;19.50;16.60;;;13.20;89.70;;;;;;5054633;28;20446;-70
2021/11/14 11:09:46;;;;;;;19.03;16.27;;;13.20;89.90;;;;;;5054422;28;20833;-70
2021/11/14 11:12:17;;;;;;;19.47;17.47;;;13.10;89.60;;;;;;5054793;28;20442;-70
2021/11/14 11:14:55;;;;;;;21.20;16.23;;;13.10;89.90;;;;;;5054907;28;20901;-70
2021/11/14 11:17:22;;;;;;;37.67;19.10;;;13.00;90.00;;;;;;5054711;28;20452;-70
2021/11/14 11:19:49;;;;;;;22.70;16.97;;;13.00;90.00;;;;;;5054732;28;20445;-71
2021/11/14 11:22:16;;;;;;;20.27;17.80;;;12.90;90.10;;;;;;5054608;28;20539;-71
2021/11/14 11:24:53;;;;;;;20.17;17.40;;;12.90;90.40;;;;;;5054316;28;20832;-70
2021/11/14 11:27:21;;;;;;;19.70;17.60;;;12.90;90.60;;;;;;5054048;28;20436;-70
2021/11/14 11:29:48;;;;;;;20.13;17.90;;;13.00;90.80;;;;;;5054062;28;20450;-70
2021/11/14 11:32:18;;;;;;;22.47;18.70;;;13.00;90.80;;;;;;5053887;28;20831;-70
2021/11/14 11:34:46;;;;;;;21.87;19.40;;;13.10;90.90;;;;;;5053554;28;21000;-70
2021/11/14 11:37:15;;;;;;;18.53;16.50;;;13.10;90.90;;;;;;5053883;28;20449;-70
2021/11/14 11:39:42;;;;;;;21.27;19.07;;;13.20;90.90;;;;;;5053809;28;20446;-71
2021/11/14 11:42:12;;;;;;;27.43;18.57;;;13.20;90.80;;;;;;5053276;28;20831;-72
2021/11/14 11:44:39;;;;;;;23.87;19.47;;;13.20;90.60;;;;;;5053713;28;20468;-72
2021/11/14 11:47:10;;;;;;;23.27;19.83;;;13.30;90.60;;;;;;5053428;28;20452;-72
2021/11/14 11:49:39;;;;;;;23.43;20.63;;;13.30;90.50;;;;;;5053689;28;20792;-71
2021/11/14 11:52:14;;;;;;;22.00;19.60;;;13.30;90.50;;;;;;5054452;28;20442;-72
2021/11/14 11:54:42;;;;;;;20.83;17.33;;;13.30;90.40;;;;;;5053670;28;20477;-72
2021/11/14 11:57:13;;;;;;;21.37;18.60;;;13.40;90.40;;;;;;5053473;28;20452;-70
2021/11/14 11:59:42;;;;;;;22.47;18.43;;;13.40;90.40;;;;;;5053623;28;20437;-70
2021/11/14 12:02:11;;;;;;;19.53;17.43;;;13.40;90.20;;;;;;5053148;28;20492;-70
2021/11/14 12:04:39;;;;;;;21.57;17.60;;;13.40;90.10;;;;;;5053312;28;20472;-70
2021/11/14 12:07:10;;;;;;;20.17;17.37;;;13.50;90.10;;;;;;5053340;28;20520;-70
2021/11/14 12:09:40;;;;;;;20.30;17.47;;;13.50;90.00;;;;;;5053653;28;20516;-70
2021/11/14 12:12:20;;;;;;;17.73;15.70;;;13.60;90.00;;;;;;5053637;28;20437;-68
2021/11/14 12:15:00;;;;;;;16.93;15.07;;;13.60;90.00;;;;;;5053397;28;20469;-71
2021/11/14 12:17:31;;;;;;;17.80;16.00;;;13.60;89.80;;;;;;5053309;28;20437;-70
2021/11/14 12:20:06;;;;;;;17.60;15.73;;;13.60;89.60;;;;;;5054238;28;20450;-72
2021/11/14 12:22:40;;;;;;;18.63;15.73;;;13.70;89.40;;;;;;5053594;28;20552;-72
2021/11/14 12:25:07;;;;;;;16.37;14.77;;;13.70;88.70;;;;;;5053341;28;20465;-71
2021/11/14 12:27:37;;;;;;;17.80;15.50;;;13.70;88.70;;;;;;5052969;28;20445;-71
2021/11/14 12:30:08;;;;;;;14.10;12.70;;;13.80;88.70;;;;;;5053024;28;20516;-70
2021/11/14 12:32:41;;;;;;;12.97;11.67;;;13.80;88.40;;;;;;5053280;28;20426;-70
2021/11/14 12:35:13;;;;;;;13.10;11.27;;;13.80;88.10;;;;;;5052882;28;20553;-70
2021/11/14 12:37:46;;;;;;;11.27;9.67;;;13.90;88.00;;;;;;5052958;28;20826;-70
2021/11/14 12:40:16;;;;;;;12.57;10.63;;;13.90;87.60;;;;;;5052883;28;20860;-70